sensor_id;sensor_type;location;lat;lon;timestamp;pressure;altitude;pressure_sealevel;temperature;humidity
9335;BME280;4706;41.844;26.082;2023-02-22T00:01:10;100710.25;;;10.56;50.75
9335;BME280;4706;41.844;26.082;2023-02-22T00:03:52;100713.16;;;10.84;50.65
9335;BME280;4706;41.844;26.082;2023-02-22T00:06:20;100705.69;;;11.03;50.79
9335;BME280;4706;41.844;26.082;2023-02-22T00:08:47;100709.00;;;11.19;50.75
9335;BME280;4706;41.844;26.082;2023-02-22T00:11:14;100711.03;;;11.13;49.62
9335;BME280;4706;41.844;26.082;2023-02-22T00:13:40;100705.41;;;10.86;49.43
9335;BME280;4706;41.844;26.082;2023-02-22T00:16:14;100709.59;;;10.83;49.71
9335;BME280;4706;41.844;26.082;2023-02-22T00:18:40;100715.72;;;10.94;49.02
9335;BME280;4706;41.844;26.082;2023-02-22T00:21:06;100721.31;;;10.89;48.94
9335;BME280;4706;41.844;26.082;2023-02-22T00:23:35;100716.50;;;10.62;49.72
9335;BME280;4706;41.844;26.082;2023-02-22T00:26:05;100718.22;;;10.39;49.89
9335;BME280;4706;41.844;26.082;2023-02-22T00:28:35;100708.22;;;10.24;50.25
9335;BME280;4706;41.844;26.082;2023-02-22T00:31:02;100718.44;;;10.18;50.65
9335;BME280;4706;41.844;26.082;2023-02-22T00:33:29;100711.00;;;10.19;50.27
9335;BME280;4706;41.844;26.082;2023-02-22T00:35:55;100714.59;;;10.19;50.56
9335;BME280;4706;41.844;26.082;2023-02-22T00:38:20;100712.66;;;10.20;50.74
9335;BME280;4706;41.844;26.082;2023-02-22T00:40:46;100717.19;;;10.35;50.70
9335;BME280;4706;41.844;26.082;2023-02-22T00:43:11;100708.94;;;10.54;50.35
9335;BME280;4706;41.844;26.082;2023-02-22T00:45:37;100716.78;;;10.41;50.37
9335;BME280;4706;41.844;26.082;2023-02-22T00:48:04;100715.09;;;10.21;50.90
9335;BME280;4706;41.844;26.082;2023-02-22T00:50:31;100709.50;;;10.08;50.50
9335;BME280;4706;41.844;26.082;2023-02-22T00:52:59;100712.03;;;10.04;50.98
9335;BME280;4706;41.844;26.082;2023-02-22T00:55:30;100713.66;;;10.05;50.89
9335;BME280;4706;41.844;26.082;2023-02-22T00:57:57;100714.94;;;10.13;51.14
9335;BME280;4706;41.844;26.082;2023-02-22T01:00:28;100705.22;;;10.20;51.23
9335;BME280;4706;41.844;26.082;2023-02-22T01:02:55;100702.13;;;10.03;51.13
9335;BME280;4706;41.844;26.082;2023-02-22T01:05:25;100702.78;;;9.95;51.60
9335;BME280;4706;41.844;26.082;2023-02-22T01:07:52;100709.88;;;10.01;50.84
9335;BME280;4706;41.844;26.082;2023-02-22T01:10:19;100703.50;;;10.06;50.89
9335;BME280;4706;41.844;26.082;2023-02-22T01:12:46;100706.66;;;9.94;51.65
9335;BME280;4706;41.844;26.082;2023-02-22T01:15:13;100701.84;;;9.81;52.17
9335;BME280;4706;41.844;26.082;2023-02-22T01:17:39;100709.94;;;9.72;52.21
9335;BME280;4706;41.844;26.082;2023-02-22T01:20:11;100708.31;;;9.71;52.25
9335;BME280;4706;41.844;26.082;2023-02-22T01:22:41;100723.44;;;9.68;52.03
9335;BME280;4706;41.844;26.082;2023-02-22T01:25:09;100723.19;;;9.65;51.74
9335;BME280;4706;41.844;26.082;2023-02-22T01:27:37;100711.69;;;9.63;51.54
9335;BME280;4706;41.844;26.082;2023-02-22T01:30:04;100712.78;;;9.62;51.31
9335;BME280;4706;41.844;26.082;2023-02-22T01:32:38;100717.22;;;9.58;51.49
9335;BME280;4706;41.844;26.082;2023-02-22T01:35:06;100722.06;;;9.66;51.30
9335;BME280;4706;41.844;26.082;2023-02-22T01:37:33;100702.75;;;9.76;51.05
9335;BME280;4706;41.844;26.082;2023-02-22T01:40:00;100702.84;;;9.66;51.16
9335;BME280;4706;41.844;26.082;2023-02-22T01:42:26;100715.81;;;9.84;51.05
9335;BME280;4706;41.844;26.082;2023-02-22T01:50:24;100698.97;;;9.43;51.38
9335;BME280;4706;41.844;26.082;2023-02-22T01:52:50;100709.13;;;9.42;51.25
9335;BME280;4706;41.844;26.082;2023-02-22T01:55:17;100706.25;;;9.29;51.25
9335;BME280;4706;41.844;26.082;2023-02-22T01:57:43;100707.19;;;9.14;51.97
9335;BME280;4706;41.844;26.082;2023-02-22T02:00:12;100710.31;;;9.02;53.01
9335;BME280;4706;41.844;26.082;2023-02-22T02:02:43;100718.91;;;8.95;53.16
9335;BME280;4706;41.844;26.082;2023-02-22T02:05:10;100713.69;;;8.94;52.95
9335;BME280;4706;41.844;26.082;2023-02-22T02:07:37;100707.06;;;9.00;52.98
9335;BME280;4706;41.844;26.082;2023-02-22T02:10:07;100707.63;;;8.97;53.24
9335;BME280;4706;41.844;26.082;2023-02-22T02:12:41;100716.41;;;8.99;53.40
9335;BME280;4706;41.844;26.082;2023-02-22T02:17:46;100708.16;;;8.99;53.06
9335;BME280;4706;41.844;26.082;2023-02-22T02:20:28;100711.97;;;9.03;52.60
9335;BME280;4706;41.844;26.082;2023-02-22T02:23:07;100710.44;;;9.21;52.12
9335;BME280;4706;41.844;26.082;2023-02-22T02:26:09;100702.34;;;9.35;52.17
9335;BME280;4706;41.844;26.082;2023-02-22T02:39:52;100715.97;;;9.45;52.61
9335;BME280;4706;41.844;26.082;2023-02-22T02:42:24;100718.59;;;9.55;52.77
9335;BME280;4706;41.844;26.082;2023-02-22T02:45:07;100718.44;;;9.46;52.52
9335;BME280;4706;41.844;26.082;2023-02-22T02:47:45;100717.47;;;9.32;52.98
9335;BME280;4706;41.844;26.082;2023-02-22T02:50:21;100710.91;;;8.99;54.00
9335;BME280;4706;41.844;26.082;2023-02-22T02:52:48;100710.78;;;8.80;54.76
9335;BME280;4706;41.844;26.082;2023-02-22T02:55:16;100714.53;;;8.89;54.15
9335;BME280;4706;41.844;26.082;2023-02-22T02:57:42;100709.31;;;8.93;54.50
9335;BME280;4706;41.844;26.082;2023-02-22T03:00:08;100704.63;;;8.93;54.65
9335;BME280;4706;41.844;26.082;2023-02-22T03:16:33;100716.06;;;9.06;53.76
9335;BME280;4706;41.844;26.082;2023-02-22T03:19:11;100718.72;;;8.82;54.15
9335;BME280;4706;41.844;26.082;2023-02-22T03:24:48;100726.22;;;9.05;53.31
9335;BME280;4706;41.844;26.082;2023-02-22T03:27:30;100736.41;;;8.99;53.55
9335;BME280;4706;41.844;26.082;2023-02-22T03:30:02;100729.94;;;8.85;53.81
9335;BME280;4706;41.844;26.082;2023-02-22T03:32:34;100731.38;;;8.72;54.10
9335;BME280;4706;41.844;26.082;2023-02-22T03:35:10;100730.66;;;8.57;53.82
9335;BME280;4706;41.844;26.082;2023-02-22T03:37:40;100731.72;;;8.61;53.45
9335;BME280;4706;41.844;26.082;2023-02-22T03:40:08;100732.50;;;8.71;53.93
9335;BME280;4706;41.844;26.082;2023-02-22T03:42:45;100725.31;;;8.81;54.29
9335;BME280;4706;41.844;26.082;2023-02-22T03:45:14;100721.66;;;8.90;54.04
9335;BME280;4706;41.844;26.082;2023-02-22T03:47:47;100716.41;;;8.94;54.34
9335;BME280;4706;41.844;26.082;2023-02-22T03:50:19;100722.97;;;8.98;54.26
9335;BME280;4706;41.844;26.082;2023-02-22T03:52:46;100727.06;;;9.00;55.00
9335;BME280;4706;41.844;26.082;2023-02-22T03:55:13;100726.47;;;9.09;55.25
9335;BME280;4706;41.844;26.082;2023-02-22T03:57:45;100719.91;;;9.05;55.26
9335;BME280;4706;41.844;26.082;2023-02-22T04:00:18;100722.41;;;9.01;55.41
9335;BME280;4706;41.844;26.082;2023-02-22T04:02:44;100726.22;;;9.05;55.90
9335;BME280;4706;41.844;26.082;2023-02-22T04:05:10;100728.63;;;9.12;55.42
9335;BME280;4706;41.844;26.082;2023-02-22T04:07:35;100725.19;;;8.96;55.88
9335;BME280;4706;41.844;26.082;2023-02-22T04:10:02;100725.44;;;8.99;55.61
9335;BME280;4706;41.844;26.082;2023-02-22T04:12:28;100734.75;;;9.04;55.72
9335;BME280;4706;41.844;26.082;2023-02-22T04:14:53;100721.53;;;9.06;54.58
9335;BME280;4706;41.844;26.082;2023-02-22T04:17:19;100733.44;;;8.96;54.34
9335;BME280;4706;41.844;26.082;2023-02-22T04:19:44;100738.34;;;8.99;54.37
9335;BME280;4706;41.844;26.082;2023-02-22T04:22:10;100741.59;;;9.01;54.35
9335;BME280;4706;41.844;26.082;2023-02-22T04:24:36;100733.19;;;8.92;54.16
9335;BME280;4706;41.844;26.082;2023-02-22T04:27:01;100722.56;;;8.81;54.44
9335;BME280;4706;41.844;26.082;2023-02-22T04:29:28;100741.53;;;8.72;54.35
9335;BME280;4706;41.844;26.082;2023-02-22T04:31:54;100747.34;;;8.65;54.55
9335;BME280;4706;41.844;26.082;2023-02-22T04:34:20;100737.81;;;8.52;55.05
9335;BME280;4706;41.844;26.082;2023-02-22T04:36:46;100753.44;;;8.52;54.97
9335;BME280;4706;41.844;26.082;2023-02-22T04:39:11;100757.91;;;8.38;55.99
9335;BME280;4706;41.844;26.082;2023-02-22T04:41:37;100757.09;;;8.27;56.19
9335;BME280;4706;41.844;26.082;2023-02-22T04:44:02;100748.09;;;8.21;56.58
9335;BME280;4706;41.844;26.082;2023-02-22T04:46:28;100754.59;;;8.41;56.65
9335;BME280;4706;41.844;26.082;2023-02-22T04:48:54;100744.47;;;8.36;57.32
9335;BME280;4706;41.844;26.082;2023-02-22T04:51:19;100748.44;;;8.64;56.81
9335;BME280;4706;41.844;26.082;2023-02-22T04:53:45;100762.75;;;8.56;56.43
9335;BME280;4706;41.844;26.082;2023-02-22T04:56:10;100751.22;;;8.59;56.67
9335;BME280;4706;41.844;26.082;2023-02-22T04:58:36;100744.00;;;8.73;56.97
9335;BME280;4706;41.844;26.082;2023-02-22T05:01:02;100760.88;;;8.91;56.53
9335;BME280;4706;41.844;26.082;2023-02-22T05:03:28;100760.06;;;8.90;56.51
9335;BME280;4706;41.844;26.082;2023-02-22T05:05:53;100768.03;;;8.87;56.46
9335;BME280;4706;41.844;26.082;2023-02-22T05:08:19;100752.44;;;8.82;56.47
9335;BME280;4706;41.844;26.082;2023-02-22T05:10:44;100762.72;;;8.61;56.58
9335;BME280;4706;41.844;26.082;2023-02-22T05:13:10;100767.44;;;8.50;58.85
9335;BME280;4706;41.844;26.082;2023-02-22T05:15:35;100766.81;;;8.69;55.54
9335;BME280;4706;41.844;26.082;2023-02-22T05:18:01;100776.50;;;8.46;55.41
9335;BME280;4706;41.844;26.082;2023-02-22T05:20:32;100772.81;;;8.01;56.36
9335;BME280;4706;41.844;26.082;2023-02-22T05:22:59;100772.84;;;7.91;56.77
9335;BME280;4706;41.844;26.082;2023-02-22T05:25:25;100783.28;;;7.78;56.76
9335;BME280;4706;41.844;26.082;2023-02-22T05:27:59;100792.63;;;7.67;57.30
9335;BME280;4706;41.844;26.082;2023-02-22T05:30:34;100784.66;;;7.76;57.30
9335;BME280;4706;41.844;26.082;2023-02-22T05:33:00;100788.22;;;7.71;57.46
9335;BME280;4706;41.844;26.082;2023-02-22T05:35:27;100798.88;;;7.78;57.77
9335;BME280;4706;41.844;26.082;2023-02-22T05:37:54;100812.56;;;7.88;58.13
9335;BME280;4706;41.844;26.082;2023-02-22T05:40:22;100812.56;;;7.83;58.21
9335;BME280;4706;41.844;26.082;2023-02-22T05:42:49;100809.03;;;7.72;58.07
9335;BME280;4706;41.844;26.082;2023-02-22T05:45:17;100799.44;;;7.70;59.10
9335;BME280;4706;41.844;26.082;2023-02-22T05:47:42;100813.41;;;7.84;59.03
9335;BME280;4706;41.844;26.082;2023-02-22T05:50:09;100820.47;;;8.00;58.70
9335;BME280;4706;41.844;26.082;2023-02-22T05:52:35;100830.06;;;8.13;57.95
9335;BME280;4706;41.844;26.082;2023-02-22T05:55:04;100829.19;;;8.22;57.87
9335;BME280;4706;41.844;26.082;2023-02-22T05:57:30;100824.78;;;8.32;57.93
9335;BME280;4706;41.844;26.082;2023-02-22T05:59:55;100819.03;;;8.23;59.10
9335;BME280;4706;41.844;26.082;2023-02-22T06:02:21;100821.78;;;8.23;59.42
9335;BME280;4706;41.844;26.082;2023-02-22T06:04:47;100819.63;;;8.04;59.70
9335;BME280;4706;41.844;26.082;2023-02-22T06:07:13;100820.75;;;7.93;59.29
9335;BME280;4706;41.844;26.082;2023-02-22T06:09:39;100816.63;;;8.01;59.72
9335;BME280;4706;41.844;26.082;2023-02-22T06:12:05;100815.25;;;8.03;59.24
9335;BME280;4706;41.844;26.082;2023-02-22T06:14:30;100828.69;;;8.05;60.37
9335;BME280;4706;41.844;26.082;2023-02-22T06:16:56;100840.75;;;8.09;60.68
9335;BME280;4706;41.844;26.082;2023-02-22T06:19:22;100834.66;;;8.27;60.50
9335;BME280;4706;41.844;26.082;2023-02-22T06:21:53;100819.56;;;8.35;60.46
9335;BME280;4706;41.844;26.082;2023-02-22T06:24:20;100832.34;;;8.65;58.95
9335;BME280;4706;41.844;26.082;2023-02-22T06:26:46;100839.91;;;8.84;59.58
9335;BME280;4706;41.844;26.082;2023-02-22T06:29:11;100846.47;;;8.93;59.25
9335;BME280;4706;41.844;26.082;2023-02-22T06:31:37;100850.75;;;9.09;59.24
9335;BME280;4706;41.844;26.082;2023-02-22T06:34:03;100843.00;;;9.21;58.95
9335;BME280;4706;41.844;26.082;2023-02-22T06:36:28;100849.25;;;9.27;58.78
9335;BME280;4706;41.844;26.082;2023-02-22T06:38:56;100839.91;;;9.33;58.72
9335;BME280;4706;41.844;26.082;2023-02-22T06:41:21;100848.84;;;9.44;58.59
9335;BME280;4706;41.844;26.082;2023-02-22T06:43:47;100847.47;;;9.46;58.45
9335;BME280;4706;41.844;26.082;2023-02-22T06:46:13;100827.25;;;9.37;58.52
9335;BME280;4706;41.844;26.082;2023-02-22T06:48:39;100842.78;;;9.52;58.38
9335;BME280;4706;41.844;26.082;2023-02-22T06:51:07;100848.72;;;9.64;58.10
9335;BME280;4706;41.844;26.082;2023-02-22T06:53:33;100842.34;;;9.69;58.32
9335;BME280;4706;41.844;26.082;2023-02-22T06:55:58;100835.72;;;9.75;59.14
9335;BME280;4706;41.844;26.082;2023-02-22T06:58:24;100841.38;;;9.84;58.66
9335;BME280;4706;41.844;26.082;2023-02-22T07:00:50;100849.22;;;10.01;57.96
9335;BME280;4706;41.844;26.082;2023-02-22T07:03:15;100842.25;;;10.08;57.73
9335;BME280;4706;41.844;26.082;2023-02-22T07:05:42;100841.03;;;10.19;58.04
9335;BME280;4706;41.844;26.082;2023-02-22T07:08:07;100832.34;;;10.36;57.78
9335;BME280;4706;41.844;26.082;2023-02-22T07:10:34;100812.44;;;10.44;57.25
9335;BME280;4706;41.844;26.082;2023-02-22T07:13:01;100839.53;;;10.56;57.98
9335;BME280;4706;41.844;26.082;2023-02-22T07:15:28;100828.47;;;10.61;57.41
9335;BME280;4706;41.844;26.082;2023-02-22T07:17:54;100817.03;;;10.73;57.54
9335;BME280;4706;41.844;26.082;2023-02-22T07:20:22;100818.59;;;10.98;57.38
9335;BME280;4706;41.844;26.082;2023-02-22T07:22:49;100822.13;;;11.55;55.61
9335;BME280;4706;41.844;26.082;2023-02-22T07:25:15;100826.69;;;11.79;54.79
9335;BME280;4706;41.844;26.082;2023-02-22T07:27:41;100832.28;;;11.93;54.74
9335;BME280;4706;41.844;26.082;2023-02-22T07:30:15;100824.19;;;12.10;54.60
9335;BME280;4706;41.844;26.082;2023-02-22T07:32:42;100822.38;;;12.33;54.22
9335;BME280;4706;41.844;26.082;2023-02-22T07:35:16;100821.47;;;12.37;54.12
9335;BME280;4706;41.844;26.082;2023-02-22T07:37:42;100813.47;;;12.63;54.44
9335;BME280;4706;41.844;26.082;2023-02-22T07:40:10;100812.56;;;12.68;54.57
9335;BME280;4706;41.844;26.082;2023-02-22T07:42:55;100818.66;;;13.15;54.59
9335;BME280;4706;41.844;26.082;2023-02-22T07:45:22;100814.72;;;13.66;53.02
9335;BME280;4706;41.844;26.082;2023-02-22T07:47:48;100809.22;;;14.06;52.22
9335;BME280;4706;41.844;26.082;2023-02-22T07:50:15;100800.09;;;14.45;51.78
9335;BME280;4706;41.844;26.082;2023-02-22T07:52:48;100797.56;;;14.57;52.74
9335;BME280;4706;41.844;26.082;2023-02-22T07:55:19;100789.25;;;14.66;51.87
9335;BME280;4706;41.844;26.082;2023-02-22T07:57:46;100795.63;;;14.84;51.47
9335;BME280;4706;41.844;26.082;2023-02-22T08:00:13;100801.34;;;14.96;51.48
9335;BME280;4706;41.844;26.082;2023-02-22T08:02:40;100799.22;;;15.19;51.05
9335;BME280;4706;41.844;26.082;2023-02-22T08:05:06;100789.28;;;15.36;50.63
9335;BME280;4706;41.844;26.082;2023-02-22T08:07:36;100795.94;;;15.52;50.92
9335;BME280;4706;41.844;26.082;2023-02-22T08:10:02;100787.28;;;15.62;50.66
9335;BME280;4706;41.844;26.082;2023-02-22T08:12:34;100781.44;;;15.72;50.59
9335;BME280;4706;41.844;26.082;2023-02-22T08:15:02;100787.63;;;15.69;50.48
9335;BME280;4706;41.844;26.082;2023-02-22T08:17:28;100778.81;;;15.59;50.92
9335;BME280;4706;41.844;26.082;2023-02-22T08:19:53;100777.66;;;15.60;51.63
9335;BME280;4706;41.844;26.082;2023-02-22T08:22:19;100774.75;;;15.56;51.72
9335;BME280;4706;41.844;26.082;2023-02-22T08:24:44;100780.59;;;15.81;51.33
9335;BME280;4706;41.844;26.082;2023-02-22T08:27:10;100779.16;;;16.13;50.83
9335;BME280;4706;41.844;26.082;2023-02-22T08:29:35;100777.91;;;16.40;50.06
9335;BME280;4706;41.844;26.082;2023-02-22T08:32:01;100772.47;;;16.43;49.68
9335;BME280;4706;41.844;26.082;2023-02-22T08:34:27;100760.81;;;16.29;49.63
9335;BME280;4706;41.844;26.082;2023-02-22T08:36:53;100762.34;;;16.47;49.48
9335;BME280;4706;41.844;26.082;2023-02-22T08:39:19;100759.56;;;16.47;49.55
9335;BME280;4706;41.844;26.082;2023-02-22T08:41:45;100766.06;;;16.51;49.74
9335;BME280;4706;41.844;26.082;2023-02-22T08:44:10;100750.28;;;16.64;49.21
9335;BME280;4706;41.844;26.082;2023-02-22T08:46:35;100756.00;;;16.68;49.48
9335;BME280;4706;41.844;26.082;2023-02-22T08:49:01;100758.81;;;16.89;49.19
9335;BME280;4706;41.844;26.082;2023-02-22T08:51:27;100762.19;;;17.15;48.44
9335;BME280;4706;41.844;26.082;2023-02-22T08:53:53;100760.41;;;17.32;47.69
9335;BME280;4706;41.844;26.082;2023-02-22T08:56:19;100752.22;;;17.47;47.16
9335;BME280;4706;41.844;26.082;2023-02-22T08:58:45;100751.91;;;17.49;46.88
9335;BME280;4706;41.844;26.082;2023-02-22T09:01:10;100743.41;;;17.45;46.94
9335;BME280;4706;41.844;26.082;2023-02-22T09:03:36;100746.00;;;17.63;47.02
9335;BME280;4706;41.844;26.082;2023-02-22T09:06:03;100736.44;;;17.85;47.08
9335;BME280;4706;41.844;26.082;2023-02-22T09:08:28;100744.56;;;17.90;46.56
9335;BME280;4706;41.844;26.082;2023-02-22T09:10:54;100742.50;;;17.99;46.03
9335;BME280;4706;41.844;26.082;2023-02-22T09:13:19;100729.97;;;17.93;45.92
9335;BME280;4706;41.844;26.082;2023-02-22T09:15:45;100732.75;;;17.93;45.04
9335;BME280;4706;41.844;26.082;2023-02-22T09:18:12;100735.88;;;17.91;45.32
9335;BME280;4706;41.844;26.082;2023-02-22T09:20:39;100740.56;;;17.66;45.40
9335;BME280;4706;41.844;26.082;2023-02-22T09:23:05;100731.28;;;17.62;46.40
9335;BME280;4706;41.844;26.082;2023-02-22T09:25:31;100735.09;;;17.91;45.50
9335;BME280;4706;41.844;26.082;2023-02-22T09:27:58;100724.19;;;18.10;44.65
9335;BME280;4706;41.844;26.082;2023-02-22T09:30:34;100730.34;;;18.28;43.50
9335;BME280;4706;41.844;26.082;2023-02-22T09:33:09;100720.19;;;18.60;43.65
9335;BME280;4706;41.844;26.082;2023-02-22T09:35:35;100716.19;;;18.86;43.17
9335;BME280;4706;41.844;26.082;2023-02-22T09:38:02;100712.19;;;18.99;42.70
9335;BME280;4706;41.844;26.082;2023-02-22T09:40:30;100714.19;;;19.27;42.42
9335;BME280;4706;41.844;26.082;2023-02-22T09:43:14;100712.88;;;19.52;40.45
9335;BME280;4706;41.844;26.082;2023-02-22T09:46:21;100706.34;;;19.76;39.15
9335;BME280;4706;41.844;26.082;2023-02-22T09:51:38;100696.28;;;20.23;37.86
9335;BME280;4706;41.844;26.082;2023-02-22T09:54:12;100692.38;;;20.59;36.72
9335;BME280;4706;41.844;26.082;2023-02-22T09:56:39;100689.06;;;20.92;34.04
9335;BME280;4706;41.844;26.082;2023-02-22T09:59:07;100682.34;;;21.16;34.34
9335;BME280;4706;41.844;26.082;2023-02-22T10:01:40;100681.69;;;21.42;34.04
9335;BME280;4706;41.844;26.082;2023-02-22T10:04:35;100676.72;;;21.78;32.79
9335;BME280;4706;41.844;26.082;2023-02-22T10:09:39;100666.81;;;22.37;30.44
9335;BME280;4706;41.844;26.082;2023-02-22T10:12:09;100670.22;;;22.50;29.79
9335;BME280;4706;41.844;26.082;2023-02-22T10:17:39;100653.66;;;22.71;29.45
9335;BME280;4706;41.844;26.082;2023-02-22T10:25:44;100640.69;;;23.27;29.20
9335;BME280;4706;41.844;26.082;2023-02-22T10:28:40;100635.16;;;23.34;29.01
9335;BME280;4706;41.844;26.082;2023-02-22T10:31:16;100633.72;;;23.10;29.49
9335;BME280;4706;41.844;26.082;2023-02-22T10:33:52;100633.75;;;23.14;29.26
9335;BME280;4706;41.844;26.082;2023-02-22T10:36:21;100630.72;;;23.30;28.32
9335;BME280;4706;41.844;26.082;2023-02-22T10:39:43;100627.25;;;23.43;28.44
9335;BME280;4706;41.844;26.082;2023-02-22T10:41:49;100616.66;;;23.70;27.78
9335;BME280;4706;41.844;26.082;2023-02-22T10:44:17;100610.00;;;23.93;26.51
9335;BME280;4706;41.844;26.082;2023-02-22T10:46:43;100613.31;;;24.09;26.36
9335;BME280;4706;41.844;26.082;2023-02-22T10:49:11;100593.28;;;24.18;26.00
9335;BME280;4706;41.844;26.082;2023-02-22T10:51:42;100598.25;;;24.42;25.77
9335;BME280;4706;41.844;26.082;2023-02-22T10:54:18;100599.50;;;24.52;25.25
9335;BME280;4706;41.844;26.082;2023-02-22T10:56:47;100599.50;;;24.52;25.56
9335;BME280;4706;41.844;26.082;2023-02-22T10:59:32;100593.00;;;24.41;25.25
9335;BME280;4706;41.844;26.082;2023-02-22T11:02:00;100580.09;;;24.33;25.42
9335;BME280;4706;41.844;26.082;2023-02-22T11:04:48;100587.41;;;24.44;25.67
9335;BME280;4706;41.844;26.082;2023-02-22T11:07:19;100585.88;;;24.61;25.10
9335;BME280;4706;41.844;26.082;2023-02-22T11:09:57;100582.31;;;24.68;25.73
9335;BME280;4706;41.844;26.082;2023-02-22T11:12:31;100577.91;;;24.85;25.96
9335;BME280;4706;41.844;26.082;2023-02-22T11:15:42;100577.16;;;25.02;25.48
9335;BME280;4706;41.844;26.082;2023-02-22T11:17:48;100566.28;;;25.01;24.24
9335;BME280;4706;41.844;26.082;2023-02-22T11:20:23;100563.09;;;25.09;24.02
9335;BME280;4706;41.844;26.082;2023-02-22T11:22:53;100559.13;;;25.25;23.73
9335;BME280;4706;41.844;26.082;2023-02-22T11:25:25;100555.88;;;25.19;22.70
9335;BME280;4706;41.844;26.082;2023-02-22T11:27:52;100548.22;;;25.12;23.46
9335;BME280;4706;41.844;26.082;2023-02-22T11:30:29;100550.66;;;25.21;23.80
9335;BME280;4706;41.844;26.082;2023-02-22T11:33:22;100552.69;;;25.31;23.60
9335;BME280;4706;41.844;26.082;2023-02-22T11:35:49;100542.59;;;25.27;22.95
9335;BME280;4706;41.844;26.082;2023-02-22T11:38:26;100541.44;;;25.28;23.76
9335;BME280;4706;41.844;26.082;2023-02-22T11:43:30;100529.75;;;25.33;23.90
9335;BME280;4706;41.844;26.082;2023-02-22T11:46:04;100533.75;;;25.53;23.94
9335;BME280;4706;41.844;26.082;2023-02-22T11:48:34;100525.69;;;25.62;23.39
9335;BME280;4706;41.844;26.082;2023-02-22T12:10:50;100499.09;;;25.96;23.17
9335;BME280;4706;41.844;26.082;2023-02-22T12:16:36;100485.72;;;26.14;23.10
9335;BME280;4706;41.844;26.082;2023-02-22T12:19:29;100486.44;;;26.29;22.96
9335;BME280;4706;41.844;26.082;2023-02-22T12:21:59;100487.75;;;26.06;22.21
9335;BME280;4706;41.844;26.082;2023-02-22T12:24:35;100476.09;;;26.04;23.01
9335;BME280;4706;41.844;26.082;2023-02-22T12:27:06;100476.47;;;26.06;23.07
9335;BME280;4706;41.844;26.082;2023-02-22T12:29:42;100463.19;;;26.14;22.64
9335;BME280;4706;41.844;26.082;2023-02-22T12:32:40;100468.03;;;26.06;21.77
9335;BME280;4706;41.844;26.082;2023-02-22T12:35:20;100475.28;;;26.11;21.23
9335;BME280;4706;41.844;26.082;2023-02-22T12:37:58;100463.22;;;26.03;20.70
9335;BME280;4706;41.844;26.082;2023-02-22T12:40:32;100473.66;;;26.10;21.51
9335;BME280;4706;41.844;26.082;2023-02-22T12:43:17;100464.34;;;26.20;20.40
9335;BME280;4706;41.844;26.082;2023-02-22T12:45:56;100460.66;;;26.30;20.99
9335;BME280;4706;41.844;26.082;2023-02-22T12:54:22;100452.22;;;26.30;21.07
9335;BME280;4706;41.844;26.082;2023-02-22T12:59:19;100431.72;;;26.19;20.94
9335;BME280;4706;41.844;26.082;2023-02-22T13:04:49;100459.13;;;26.19;20.61
9335;BME280;4706;41.844;26.082;2023-02-22T13:07:53;100442.28;;;26.01;21.58
9335;BME280;4706;41.844;26.082;2023-02-22T13:15:36;100449.47;;;26.12;21.00
9335;BME280;4706;41.844;26.082;2023-02-22T13:18:33;100449.91;;;26.07;21.30
9335;BME280;4706;41.844;26.082;2023-02-22T13:29:41;100443.59;;;25.78;21.47
9335;BME280;4706;41.844;26.082;2023-02-22T13:41:11;100444.09;;;24.80;21.89
9335;BME280;4706;41.844;26.082;2023-02-22T13:43:23;100446.00;;;24.37;22.47
9335;BME280;4706;41.844;26.082;2023-02-22T13:53:53;100451.00;;;23.78;23.11
9335;BME280;4706;41.844;26.082;2023-02-22T13:56:21;100443.34;;;23.71;23.31
9335;BME280;4706;41.844;26.082;2023-02-22T13:58:56;100450.41;;;23.47;23.50
9335;BME280;4706;41.844;26.082;2023-02-22T14:01:44;100452.38;;;23.43;23.80
9335;BME280;4706;41.844;26.082;2023-02-22T14:06:53;100452.41;;;23.50;23.74
9335;BME280;4706;41.844;26.082;2023-02-22T14:17:35;100445.28;;;23.05;24.34
9335;BME280;4706;41.844;26.082;2023-02-22T14:22:49;100445.34;;;23.12;24.21
9335;BME280;4706;41.844;26.082;2023-02-22T14:25:38;100444.13;;;23.09;24.07
9335;BME280;4706;41.844;26.082;2023-02-22T14:28:31;100446.03;;;22.98;24.48
9335;BME280;4706;41.844;26.082;2023-02-22T14:31:10;100440.06;;;22.99;24.14
9335;BME280;4706;41.844;26.082;2023-02-22T14:34:06;100441.19;;;22.91;24.19
9335;BME280;4706;41.844;26.082;2023-02-22T14:41:50;100444.72;;;22.85;24.49
9335;BME280;4706;41.844;26.082;2023-02-22T14:44:34;100437.34;;;22.69;24.87
9335;BME280;4706;41.844;26.082;2023-02-22T14:47:05;100441.34;;;22.65;24.77
9335;BME280;4706;41.844;26.082;2023-02-22T14:49:35;100442.03;;;22.54;24.75
9335;BME280;4706;41.844;26.082;2023-02-22T14:52:17;100443.13;;;22.43;25.13
9335;BME280;4706;41.844;26.082;2023-02-22T14:54:54;100444.22;;;22.35;25.21
9335;BME280;4706;41.844;26.082;2023-02-22T14:57:39;100448.03;;;22.16;25.50
9335;BME280;4706;41.844;26.082;2023-02-22T15:00:14;100435.25;;;21.88;26.22
9335;BME280;4706;41.844;26.082;2023-02-22T15:02:49;100423.44;;;21.72;26.26
9335;BME280;4706;41.844;26.082;2023-02-22T15:05:18;100433.53;;;21.80;26.30
9335;BME280;4706;41.844;26.082;2023-02-22T15:07:57;100438.34;;;21.79;26.08
9335;BME280;4706;41.844;26.082;2023-02-22T15:10:27;100429.84;;;21.72;26.35
9335;BME280;4706;41.844;26.082;2023-02-22T15:13:02;100434.50;;;21.91;25.90
9335;BME280;4706;41.844;26.082;2023-02-22T15:20:45;100439.53;;;21.78;26.19
9335;BME280;4706;41.844;26.082;2023-02-22T15:23:14;100438.84;;;21.58;26.96
9335;BME280;4706;41.844;26.082;2023-02-22T15:25:46;100437.44;;;21.42;28.25
9335;BME280;4706;41.844;26.082;2023-02-22T15:28:13;100443.53;;;21.24;29.12
9335;BME280;4706;41.844;26.082;2023-02-22T15:30:39;100443.63;;;21.05;30.04
9335;BME280;4706;41.844;26.082;2023-02-22T15:33:15;100448.97;;;20.91;30.74
9335;BME280;4706;41.844;26.082;2023-02-22T15:35:41;100448.31;;;20.74;31.22
9335;BME280;4706;41.844;26.082;2023-02-22T15:40:36;100451.75;;;20.45;32.06
9335;BME280;4706;41.844;26.082;2023-02-22T15:43:21;100447.44;;;20.28;32.56
9335;BME280;4706;41.844;26.082;2023-02-22T15:45:53;100446.84;;;20.19;32.96